Tiempo atmosférico en la estación meteorológica de Gaucín, Málaga (545 m.)



Fecha
DESCASC
Temp. máxima en grados centígrados (hora)
DESCASC
Temp. mínima en grados centígrados (hora)
DESCASC
Temp. media en grados centígrados
DESCASC
Racha de viento máxima en m/sg (hora)
DESCASC
Velocidad máxima media en intervalos de 10 minutos(hora)
DESCASC
Precipitaciones diarias en mm
DESCASC
Precipitaciones de 00:00 a 06:00 en mm
DESCASC
Precipitaciones de 06:00 a 12:00 en mm
DESCASC
Precipitaciones de 12:00 a 18:00 en mm
DESCASC
Precipitaciones de 18:00 a 24:00 en mm
DESCASC
10-07-2020 29.7 (16:20) 17.7 (06:50) 23.7 7.22 (15:50) 4.44 (14:20) 0 0 0 0 0
09-07-2020 31.3 (17:20) 19.2 (07:20) 25.3 7.78 (14:20) 4.17 (16:00) 0 0 0 0 0
08-07-2020 30.8 (15:20) 21.4 (23:30) 26.1 7.78 (17:20) 5.28 (17:20) 0 0 0 0 0
07-07-2020 36.2 (17:00) 21.1 (05:10) 28.7 6.11 (14:30) 3.61 (06:30) 0 0 0 0 0
06-07-2020 32.5 (17:30) 19.7 (00:00) 26.1 8.06 (15:50) 5 (16:20) 0 0 0 0 0
05-07-2020 31.7 (16:40) 19.4 (00:00) 25.6 6.67 (12:20) 3.89 (17:00) 0 0 0 0 0
04-07-2020 28.3 (15:10) 17.7 (00:00) 23 7.22 (16:20) 4.17 (17:30) 0 0 0 0 0
03-07-2020 31.8 (15:00) 17.9 (07:50) 24.8 8.89 (00:50) 5 (18:30) 0 0 0 0 0
02-07-2020 31.3 (15:30) 17.7 (00:00) 24.5 10.83 (14:50) 6.39 (07:50) 0 0 0 0 0
01-07-2020 33.9 (15:20) 16.8 (00:00) 25.4 6.94 (17:00) 4.17 (05:30) 0 0 0 0 0
30-06-2020 29.7 (15:40) 19.3 (00:00) 24.5 6.94 (14:00) 4.72 (15:50) 0 0 0 0 0
29-06-2020 31.5 (15:40) 19.2 (00:00) 25.4 6.94 (16:20) 4.72 (16:10) 0 0 0 0 0
28-06-2020 31.9 (17:00) 18.8 (00:00) 25.3 7.22 (14:30) 4.17 (07:30) 0 0 0 0 0
27-06-2020 29.5 (17:20) 14.3 (00:00) 21.9 9.17 (16:40) 4.72 (03:40) 0 0 0 0 0
26-06-2020 27.8 (17:30) 14.5 (00:00) 21.1 9.44 (12:40) 4.17 (21:20) 0 0 0 0 0
25-06-2020 27.1 (17:10) 18.4 (00:00) 22.8 8.89 (16:40) 5.28 (16:30) 0 0 0 0 0
24-06-2020 29.5 (16:10) 17.8 (00:00) 23.6 7.78 (17:10) 4.44 (17:10) 0 0 0 0 0
23-06-2020 30 (16:20) 20.8 (00:00) 25.4 8.61 (13:00) 5.83 (13:00) 0 0 0 0 0
22-06-2020 32.3 (16:30) 20.2 (00:00) 26.3 7.5 (14:10) 4.44 (17:50) 0 0 0 0 0
21-06-2020 32.4 (15:00) 17.4 (00:00) 24.9 7.78 (15:30) 4.72 (15:40) 0 0 0 0 0
20-06-2020 28.3 (17:00) 15.8 (00:00) 22 7.5 (17:10) 4.72 (17:20) 0 0 0 0 0
19-06-2020 27.2 (16:20) 13.4 (00:00) 20.3 8.33 (03:20) 5.28 (03:20) 0 0 0 0 0
18-06-2020 26.2 (16:50) 14.3 (00:00) 20.3 9.44 (17:30) 5.83 (17:30) 0 0 0 0 0
17-06-2020 25.9 (16:50) 14.8 (00:00) 20.3 10.28 (11:40) 4.17 (03:40) 0 0 0 0 0
16-06-2020 24.8 (15:40) 13.8 (00:00) 19.3 11.39 (03:00) 6.11 (02:10) 0 0 0 0 0
15-06-2020 25.5 (17:50) 11 (00:00) 18.3 8.89 (03:30) 5.56 (03:10) 0 0 0 0 0

Gráficas

Temp. máximas Temp. mínimas Temp. medias Precipitaciones Rachas de viento máximas Velocidades máximas media en intervalos de 10 minutos

Datos horarios

Fecha y hora oficial Temperatura (ºC) Velocidad del viento (km/h) Dirección del viento Racha (km/h) Dirección de racha Precipitación (mm) Presión (hPa) Tendencia (hPa) Humedad (%)
2020-07-14 23:00:00 20.8 0 Calma 5 Norte 0 -- -- 75
2020-07-14 22:00:00 21.8 4 Norte 6 Norte 0 -- -- 73
2020-07-14 21:00:00 23.7 4 Sur 9 Sudoeste 0 -- -- 65
2020-07-14 20:00:00 24.9 5 Sudoeste 15 Sudoeste 0 -- -- 61
2020-07-14 19:00:00 26.5 10 Sudoeste 24 Sudoeste 0 -- -- 53
2020-07-14 18:00:00 27.3 14 Sudoeste 25 Sudoeste 0 -- -- 48
2020-07-14 17:00:00 28.2 15 Sudoeste 26 Sudoeste 0 -- -- 45
2020-07-14 16:00:00 28.3 16 Sudoeste 30 Sudoeste 0 -- -- 46
2020-07-14 15:00:00 28.8 14 Sudoeste 24 Oeste 0 -- -- 46
2020-07-14 14:00:00 28.8 9 Sudoeste 17 Sudoeste 0 -- -- 45
2020-07-14 13:00:00 28.5 9 Sudoeste 22 Sudoeste 0 -- -- 45
2020-07-14 12:00:00 27.3 7 Sudoeste 17 Sudoeste 0 -- -- 47
2020-07-14 11:00:00 26.4 5 Sur 13 Sudoeste 0 -- -- 44
2020-07-14 10:00:00 25.5 4 Sudoeste 9 Sur 0 -- -- 48
2020-07-14 09:00:00 22.8 0 Calma 10 Norte 0 -- -- 51
2020-07-14 08:00:00 21.2 2 Noroeste 7 Oeste 0 -- -- 51
2020-07-14 07:00:00 21.3 4 Oeste 10 Nordeste 0 -- -- 49
2020-07-14 06:00:00 21.4 4 Nordeste 13 Nordeste 0 -- -- 54
2020-07-14 05:00:00 21 2 Sudoeste 9 Sudeste 0 -- -- 62
2020-07-14 04:00:00 20.8 2 Este 10 Este 0 -- -- 62
2020-07-14 03:00:00 20.8 3 Este 6 Este 0 -- -- 61
2020-07-14 02:00:00 21.1 3 Sudoeste 13 Sudeste 0 -- -- 59
2020-07-14 01:00:00 21.3 3 Sudeste 9 Este 0 -- -- 57
2020-07-14 00:00:00 20.6 4 Nordeste 8 Norte 0 -- -- 65
2020-07-13 23:00:00 20.9 4 Norte 8 Norte 0 -- -- 67
2020-07-13 22:00:00 21.6 0 Calma 15 Sudoeste 0 -- -- 63
2020-07-13 21:00:00 23.3 6 Sudoeste 18 Sudoeste 0 -- -- 58
2020-07-13 20:00:00 25.7 14 Sudoeste 22 Sudoeste 0 -- -- 50
2020-07-13 19:00:00 28.2 11 Sudoeste 20 Sudoeste 0 -- -- 44
2020-07-13 18:00:00 29.4 14 Sudoeste 23 Sudoeste 0 -- -- 41
2020-07-13 17:00:00 29.3 10 Sudoeste 24 Sudoeste 0 -- -- 42
2020-07-13 16:00:00 29.1 14 Sudoeste 28 Sudoeste 0 -- -- 42
2020-07-13 15:00:00 28.7 17 Sudoeste 30 Sudoeste 0 -- -- 43
2020-07-13 14:00:00 28.7 16 Sudoeste 25 Sudoeste 0 -- -- 44
2020-07-13 13:00:00 28.4 8 Sudoeste 17 Sudoeste 0 -- -- 46
2020-07-13 12:00:00 27.1 5 Sur 13 Sudoeste 0 -- -- 46
2020-07-13 11:00:00 25.3 5 Sur 11 Sudoeste 0 -- -- 52
2020-07-13 10:00:00 23.9 5 Sudoeste 8 Sudoeste 0 -- -- 55
2020-07-13 09:00:00 21.7 2 Sur 10 Sudeste 0 -- -- 57
2020-07-13 08:00:00 19.5 2 Sudeste 7 Nordeste 0 -- -- 62
2020-07-13 07:00:00 19.6 0 Calma 6 Sur 0 -- -- 59
2020-07-13 06:00:00 20.2 0 Calma 9 Este 0 -- -- 57
2020-07-13 05:00:00 20.6 3 Oeste 15 Sudeste 0 -- -- 58
2020-07-13 04:00:00 20.6 4 Noroeste 19 Nordeste 0 -- -- 64
2020-07-13 03:00:00 20.4 4 Oeste 10 Oeste 0 -- -- 71
2020-07-13 02:00:00 20 5 Sudoeste 18 Este 0 -- -- 84
2020-07-13 01:00:00 19.4 0 Calma 8 Noroeste 0 -- -- 90
2020-07-13 00:00:00 19.7 4 Norte 10 Norte 0 -- -- 90
2020-07-12 23:00:00 20.6 7 Norte 11 Norte 0 -- -- 86
2020-07-12 22:00:00 21.9 0 Calma 11 Nordeste 0 -- -- 79
2020-07-12 21:00:00 23.9 4 Este 13 Sur 0 -- -- 73
2020-07-12 20:00:00 25.3 11 Sur 26 Sudoeste 0 -- -- 67
2020-07-12 19:00:00 27.9 17 Sudoeste 27 Sudoeste 0 -- -- 58
2020-07-12 18:00:00 30.4 12 Sudoeste 19 Sudoeste 0 -- -- 50
2020-07-12 17:00:00 30.7 7 Sudoeste 22 Sudoeste 0 -- -- 48
2020-07-12 16:00:00 30.6 8 Sudoeste 22 Sur 0 -- -- 46
2020-07-12 15:00:00 29.9 7 Sudoeste 17 Sudoeste 0 -- -- 46
2020-07-12 14:00:00 29.7 5 Sudoeste 22 Sudoeste 0 -- -- 48
2020-07-12 13:00:00 28 6 Norte 23 Sudeste 0 -- -- 48
2020-07-12 12:00:00 26 6 Oeste 29 Norte 0 -- -- 55
2020-07-12 11:00:00 25.3 5 Sur 19 Oeste 0 -- -- 55
2020-07-12 10:00:00 24.7 4 Sudoeste 19 Sudoeste 0 -- -- 54
2020-07-12 09:00:00 23.2 8 Sudoeste 13 Sur 0 -- -- 54
2020-07-12 08:00:00 23 4 Sudeste 17 Sur 0 -- -- 50
2020-07-12 07:00:00 23.2 6 Sudoeste 17 Sur 0 -- -- 47
2020-07-12 06:00:00 23.5 4 Nordeste 19 Sur 0 -- -- 44
2020-07-12 05:00:00 22.7 4 Oeste 10 Sudoeste 0 -- -- 49
2020-07-12 04:00:00 23.3 2 Noroeste 19 Sur 0 -- -- 48
2020-07-12 03:00:00 23.8 4 Norte 28 Sudeste 0 -- -- 46
2020-07-12 02:00:00 24.6 10 Sur 28 Sudeste 0 -- -- 43
2020-07-12 01:00:00 25.7 7 Sudoeste 32 Este 0 -- -- 37
2020-07-12 00:00:00 25.8 8 Nordeste 28 Nordeste 0 -- -- 38
2020-07-11 23:00:00 25.7 12 Nordeste 44 Sur 0 -- -- 35
2020-07-11 22:00:00 24.9 11 Sudoeste 25 Oeste 0 -- -- 39
2020-07-11 21:00:00 24.8 11 Sudoeste 27 Sudoeste 0 -- -- 42
2020-07-11 20:00:00 25.1 9 Noroeste 25 Norte 0 -- -- 58
2020-07-11 19:00:00 27 7 Noroeste 18 Norte 0 -- -- 56
2020-07-11 18:00:00 29 6 Sudoeste 26 Norte 0 -- -- 50
2020-07-11 17:00:00 29.7 6 Oeste 21 Oeste 0 -- -- 48
2020-07-11 16:00:00 29 6 Oeste 17 Nordeste 0 -- -- 50
2020-07-11 15:00:00 27.6 8 Sudoeste 18 Sudoeste 0 -- -- 55
2020-07-11 14:00:00 26.6 8 Sudoeste 21 Sudoeste 0 -- -- 61
2020-07-11 13:00:00 26.6 8 Sudoeste 25 Sur 0 -- -- 60
2020-07-11 12:00:00 25.2 10 Sudoeste 16 Sudoeste 0 -- -- 63
2020-07-11 11:00:00 24.1 5 Sudoeste 14 Sudoeste 0 -- -- 59
2020-07-11 10:00:00 22.5 8 Sudoeste 13 Sudoeste 0 -- -- 61
2020-07-11 09:00:00 20.9 5 Sur 8 Sudoeste 0 -- -- 62
2020-07-11 08:00:00 20.6 0 Calma 6 Nordeste 0 -- -- 59
2020-07-11 07:00:00 21.4 4 Este 12 Nordeste 0 -- -- 53
2020-07-11 06:00:00 20.4 2 Sudeste 7 Nordeste 0 -- -- 54
2020-07-11 05:00:00 19.7 3 Oeste 9 Sur 0 -- -- 64
2020-07-11 04:00:00 19.7 0 Calma 7 Nordeste 0 -- -- 73
2020-07-11 03:00:00 21.5 4 Nordeste 12 Nordeste 0 -- -- 59
2020-07-11 02:00:00 19.6 7 Nordeste 12 Norte 0 -- -- 78
2020-07-11 01:00:00 20.3 4 Nordeste 9 Nordeste 0 -- -- 74
2020-07-11 00:00:00 20.3 0 Calma 4 Sudoeste 0 -- -- 74
2020-07-10 23:00:00 21.6 0 Calma 7 Sur 0 -- -- 67
2020-07-10 22:00:00 22.4 3 Sur 7 Sur 0 -- -- 66
2020-07-10 21:00:00 24.3 5 Sudoeste 11 Sudoeste 0 -- -- 59
2020-07-10 20:00:00 26.8 6 Sudoeste 15 Sudoeste 0 -- -- 53
2020-07-10 19:00:00 28.2 9 Sudoeste 17 Sudoeste 0 -- -- 49
2020-07-10 18:00:00 29 10 Sudoeste 22 Sudoeste 0 -- -- 47
2020-07-10 17:00:00 29.7 12 Sudoeste 22 Sudoeste 0 -- -- 42
2020-07-10 16:00:00 29.3 12 Sudoeste 26 Sudoeste 0 -- -- 41
2020-07-10 15:00:00 27.9 14 Sudoeste 24 Sudoeste 0 -- -- 43
2020-07-10 14:00:00 28 14 Sudoeste 24 Sudoeste 0 -- -- 46
2020-07-10 13:00:00 27.1 13 Sudoeste 21 Sudoeste 0 -- -- 48
2020-07-10 12:00:00 25.9 7 Sudoeste 14 Sur 0 -- -- 51
2020-07-10 11:00:00 24.3 6 Sudoeste 12 Sudoeste 0 -- -- 56
2020-07-10 10:00:00 23.2 6 Norte 10 Nordeste 0 -- -- 59
2020-07-10 09:00:00 21.3 0 Calma 7 Nordeste 0 -- -- 64
2020-07-10 08:00:00 19.5 3 Norte 15 Nordeste 0 -- -- 69
2020-07-10 07:00:00 18.2 9 Nordeste 15 Norte 0 -- -- 75
2020-07-10 06:00:00 19 12 Nordeste 13 Norte 0 -- -- 71
2020-07-10 05:00:00 20 9 Nordeste 12 Nordeste 0 -- -- 64
2020-07-10 04:00:00 20.5 8 Nordeste 12 Norte 0 -- -- 65
2020-07-10 03:00:00 20.9 7 Norte 10 Norte 0 -- -- 65
2020-07-10 02:00:00 21 0 Calma 5 Nordeste 0 -- -- 65
2020-07-10 01:00:00 21.7 0 Calma 13 Norte 0 -- -- 64
2020-07-10 00:00:00 22.5 2 Sur 4 Sur 0 -- -- 58
2020-07-09 23:00:00 23.4 0 Calma 5 Sur 0 -- -- 56
2020-07-09 22:00:00 24.5 3 Sur 7 Sur 0 -- -- 53
2020-07-09 21:00:00 26.6 5 Sudoeste 16 Sudoeste 0 -- -- 48
2020-07-09 20:00:00 28.8 12 Sudoeste 21 Sudoeste 0 -- -- 45
2020-07-09 19:00:00 30 12 Sudoeste 24 Sur 0 -- -- 43
2020-07-09 18:00:00 30.8 13 Sudoeste 27 Sudoeste 0 -- -- 40
2020-07-09 17:00:00 30.9 14 Sudoeste 24 Sudoeste 0 -- -- 35
2020-07-09 16:00:00 30 15 Sudoeste 26 Sudoeste 0 -- -- 38
2020-07-09 15:00:00 29.2 12 Sudoeste 28 Sudoeste 0 -- -- 43
2020-07-09 14:00:00 28.2 13 Sudoeste 24 Sudoeste 0 -- -- 45
2020-07-09 13:00:00 26.8 12 Sudoeste 21 Sudoeste 0 -- -- 52
2020-07-09 12:00:00 25 8 Sudoeste 15 Sur 0 -- -- 59
2020-07-09 11:00:00 24.1 4 Sur 8 Sur 0 -- -- 60
2020-07-09 10:00:00 22.4 3 Sudoeste 5 Oeste 0 -- -- 65
2020-07-09 09:00:00 20.7 0 Calma 8 Nordeste 0 -- -- 66
2020-07-09 08:00:00 19.3 0 Calma 10 Nordeste 0 -- -- 63
2020-07-09 07:00:00 19.8 4 Nordeste 6 Sudoeste 0 -- -- 58
2020-07-09 06:00:00 20 0 Calma 8 Noroeste 0 -- -- 55
2020-07-09 05:00:00 20.1 2 Oeste 6 Norte 0 -- -- 53
2020-07-09 04:00:00 20.6 3 Norte 10 Nordeste 0 -- -- 53
2020-07-09 03:00:00 20.7 4 Oeste 9 Este 0 -- -- 53
2020-07-09 02:00:00 20.2 0 Calma 5 Sudoeste 0 -- -- 61
2020-07-09 01:00:00 21.1 2 Nordeste 7 Norte 0 -- -- 53
2020-07-09 00:00:00 21.4 0 Calma 4 Sur 0 -- -- 56
2020-07-08 23:00:00 21.8 0 Calma 3 Sur 0 -- -- 56
2020-07-08 22:00:00 22.3 0 Calma 9 Sudoeste 0 -- -- 56
2020-07-08 21:00:00 24.2 7 Sudoeste 20 Sudoeste 0 -- -- 48
2020-07-08 20:00:00 26.3 15 Sudoeste 23 Sudoeste 0 -- -- 45
2020-07-08 19:00:00 27.8 15 Sudoeste 24 Sudoeste 0 -- -- 42
2020-07-08 18:00:00 28.4 18 Sudoeste 28 Sur 0 -- -- 40
2020-07-08 17:00:00 29.7 17 Sudoeste 23 Sudoeste 0 -- -- 37
2020-07-08 16:00:00 30 15 Sudoeste 25 Sudoeste 0 -- -- 36
2020-07-08 15:00:00 30.4 16 Sudoeste 26 Sudoeste 0 -- -- 33
2020-07-08 14:00:00 30.7 7 Sur 19 Oeste 0 -- -- 32
2020-07-08 13:00:00 29.5 5 Sudoeste 15 Oeste 0 -- -- 31
2020-07-08 12:00:00 27.6 8 Sudoeste 15 Oeste 0 -- -- 33
2020-07-08 11:00:00 26.1 8 Sudoeste 14 Sudoeste 0 -- -- 38
2020-07-08 10:00:00 24.6 3 Sudoeste 12 Sudoeste 0 -- -- 42
2020-07-08 09:00:00 23 4 Este 10 Este 0 -- -- 38
2020-07-08 08:00:00 21.9 5 Sudeste 19 Norte 0 -- -- 45
2020-07-08 07:00:00 23.2 4 Sur 14 Nordeste 0 -- -- 46
2020-07-08 06:00:00 25.1 5 Nordeste 16 Norte 0 -- -- 36
2020-07-08 05:00:00 25 5 Este 23 Sudoeste 0 -- -- 40
2020-07-08 04:00:00 26.1 3 Sur 10 Nordeste 0 -- -- 38
2020-07-08 03:00:00 26.6 5 Nordeste 9 Nordeste 0 -- -- 38
2020-07-08 02:00:00 28 4 Nordeste 10 Este 0 -- -- 35
2020-07-08 01:00:00 27.5 8 Nordeste 13 Nordeste 0 -- -- 40
2020-07-08 00:00:00 28.5 0 Calma 9 Norte 0 -- -- 37
2020-07-07 23:00:00 27.5 9 Nordeste 14 Nordeste 0 -- -- 40
2020-07-07 22:00:00 28.5 0 Calma 8 Este 0 -- -- 40
2020-07-07 21:00:00 29.9 5 Nordeste 12 Norte 0 -- -- 39
2020-07-07 20:00:00 31.8 3 Noroeste 10 Sur 0 -- -- 34
2020-07-07 19:00:00 33.6 7 Sudoeste 17 Sudoeste 0 -- -- 30
2020-07-07 18:00:00 35.2 8 Sudoeste 18 Sur 0 -- -- 28
2020-07-07 17:00:00 36.2 7 Sudoeste 18 Sudoeste 0 -- -- 27
2020-07-07 16:00:00 34.4 10 Sudoeste 19 Sudoeste 0 -- -- 28
2020-07-07 15:00:00 33.8 10 Sudoeste 22 Sur 0 -- -- 29
2020-07-07 14:00:00 32.8 10 Sudoeste 17 Sudoeste 0 -- -- 30
2020-07-07 13:00:00 30.9 8 Sudoeste 15 Sudoeste 0 -- -- 35
2020-07-07 12:00:00 29.2 4 Sudoeste 10 Sudoeste 0 -- -- 40
2020-07-07 11:00:00 28.6 4 Sudoeste 7 Sudoeste 0 -- -- 45
2020-07-07 10:00:00 27.5 0 Calma 3 Sur 0 -- -- 39
2020-07-07 09:00:00 24.5 2 Sur 6 Nordeste 0 -- -- 48
2020-07-07 08:00:00 22.1 5 Nordeste 14 Nordeste 0 -- -- 50
2020-07-07 07:00:00 22.4 8 Nordeste 16 Nordeste 0 -- -- 48
2020-07-07 06:00:00 22.1 13 Nordeste 15 Nordeste 0 -- -- 47
2020-07-07 05:00:00 21.3 12 Norte 16 Nordeste 0 -- -- 49
2020-07-07 04:00:00 22.9 5 Nordeste 13 Norte 0 -- -- 44
2020-07-07 03:00:00 22.7 10 Nordeste 13 Norte 0 -- -- 46
2020-07-07 02:00:00 23.6 4 Nordeste 10 Nordeste 0 -- -- 44
2020-07-07 01:00:00 23.8 0 Calma 8 Nordeste 0 -- -- 43
2020-07-07 00:00:00 24 0 Calma 8 Este 0 -- -- 39
2020-07-06 23:00:00 24.5 4 Nordeste 10 Nordeste 0 -- -- 39
2020-07-06 22:00:00 24.7 4 Nordeste 13 Norte 0 -- -- 37
2020-07-06 21:00:00 26.6 0 Calma 11 Sudoeste 0 -- -- 35
2020-07-06 20:00:00 29.8 7 Sudoeste 15 Sudoeste 0 -- -- 34
2020-07-06 19:00:00 31.5 9 Sudoeste 18 Sudoeste 0 -- -- 32
2020-07-06 18:00:00 32.3 9 Sudoeste 21 Sudoeste 0 -- -- 31
2020-07-06 17:00:00 32.1 13 Sudoeste 29 Sudoeste 0 -- -- 30
2020-07-06 16:00:00 31.9 15 Sudoeste 29 Sudoeste 0 -- -- 31
2020-07-06 15:00:00 31.3 12 Sudoeste 21 Sudoeste 0 -- -- 36
2020-07-06 14:00:00 30.7 10 Sudoeste 19 Oeste 0 -- -- 40
2020-07-06 13:00:00 29.5 6 Sudoeste 14 Sur 0 -- -- 40
2020-07-06 12:00:00 27.3 7 Sudoeste 14 Sudoeste 0 -- -- 40
2020-07-06 11:00:00 26.4 3 Sur 6 Sur 0 -- -- 40
2020-07-06 10:00:00 25.3 4 Sur 9 Nordeste 0 -- -- 37
2020-07-06 09:00:00 21.8 6 Nordeste 11 Nordeste 0 -- -- 46
2020-07-06 08:00:00 20.8 3 Este 10 Norte 0 -- -- 41
2020-07-06 07:00:00 20.2 2 Nordeste 12 Nordeste 0 -- -- 47
2020-07-06 06:00:00 19.9 10 Nordeste 13 Nordeste 0 -- -- 49
2020-07-06 05:00:00 20.9 0 Calma 9 Nordeste 0 -- -- 44
2020-07-06 04:00:00 20.9 0 Calma 7 Nordeste 0 -- -- 50
2020-07-06 03:00:00 20.8 0 Calma 5 Noroeste 0 -- -- 52
2020-07-06 02:00:00 20.5 2 Sudoeste 5 Sudoeste 0 -- -- 56
2020-07-06 01:00:00 20.9 0 Calma 6 Nordeste 0 -- -- 55
2020-07-06 00:00:00 21.2 0 Calma 5 Nordeste 0 -- -- 57
2020-07-05 23:00:00 21.4 4 Nordeste 8 Norte 0 -- -- 57
2020-07-05 22:00:00 22.1 3 Norte 12 Nordeste 0 -- -- 57
2020-07-05 21:00:00 24.9 6 Norte 12 Noroeste 0 -- -- 51
2020-07-05 20:00:00 27.8 5 Sudoeste 14 Sudoeste 0 -- -- 45
2020-07-05 19:00:00 29.5 4 Oeste 19 Sudoeste 0 -- -- 42
2020-07-05 18:00:00 29.8 11 Sudoeste 24 Sudoeste 0 -- -- 41
2020-07-05 17:00:00 31.2 14 Sudoeste 22 Sudoeste 0 -- -- 36
2020-07-05 16:00:00 31.2 8 Sudoeste 23 Sudoeste 0 -- -- 38
2020-07-05 15:00:00 30.5 6 Noroeste 21 Sudoeste 0 -- -- 38
2020-07-05 14:00:00 29.3 9 Sudoeste 21 Sudoeste 0 -- -- 42
2020-07-05 13:00:00 29 9 Sudoeste 24 Este 0 -- -- 42
2020-07-05 12:00:00 26.3 5 Sudoeste 15 Sur 0 -- -- 53
2020-07-05 11:00:00 23.8 8 Sudoeste 14 Sudoeste 0 -- -- 63
2020-07-05 10:00:00 22.6 4 Sudoeste 8 Sur 0 -- -- 66
2020-07-05 09:00:00 21.9 3 Oeste 10 Este 0 -- -- 58
2020-07-05 08:00:00 20.7 0 Calma 10 Oeste 0 -- -- 58
2020-07-05 07:00:00 20.8 4 Este 12 Este 0 -- -- 57
2020-07-05 06:00:00 20 3 Este 9 Este 0 -- -- 64
2020-07-05 05:00:00 19.4 0 Calma 6 Sudoeste 0 -- -- 70
2020-07-05 04:00:00 20 4 Sur 8 Sur 0 -- -- 66
2020-07-05 03:00:00 20 3 Sudoeste 6 Este 0 -- -- 66
2020-07-05 02:00:00 20 2 Sur 4 Este 0 -- -- 70
2020-07-05 01:00:00 20.3 0 Calma 5 Este 0 -- -- 69
2020-07-05 00:00:00 20.6 2 Sudoeste 7 Sur 0 -- -- 69
2020-07-04 23:00:00 21.6 3 Sur 8 Sudoeste 0 -- -- 61
2020-07-04 22:00:00 22.5 2 Oeste 6 Sudoeste 0 -- -- 59
2020-07-04 21:00:00 24.2 2 Oeste 12 Sudoeste 0 -- -- 67
2020-07-04 20:00:00 26.5 6 Sudoeste 14 Sudoeste 0 -- -- 61
2020-07-04 19:00:00 26.9 8 Sudoeste 20 Sudoeste 0 -- -- 60
2020-07-04 18:00:00 27.3 12 Sudoeste 21 Sudoeste 0 -- -- 59
2020-07-04 17:00:00 27.9 12 Sudoeste 26 Sudoeste 0 -- -- 57
2020-07-04 16:00:00 28.3 11 Sudoeste 21 Sudoeste 0 -- -- 56
2020-07-04 15:00:00 28 8 Sudoeste 21 Sudeste 0 -- -- 55
2020-07-04 14:00:00 27 6 Oeste 21 Este 0 -- -- 59
2020-07-04 13:00:00 26.1 6 Oeste 18 Sur 0 -- -- 59
2020-07-04 12:00:00 24.5 8 Nordeste 20 Sudeste 0 -- -- 65
2020-07-04 11:00:00 23.9 6 Sudoeste 15 Oeste 0 -- -- 68
2020-07-04 10:00:00 21.7 4 Sur 9 Sudoeste 0 -- -- 77
2020-07-04 09:00:00 19.4 5 Sudoeste 7 Sudoeste 0 -- -- 86
2020-07-04 08:00:00 17.9 4 Nordeste 12 Nordeste 0 -- -- 85
2020-07-04 07:00:00 18 5 Nordeste 9 Norte 0 -- -- 84
2020-07-04 06:00:00 19 2 Sudoeste 6 Sur 0 -- -- 80
2020-07-04 05:00:00 20.2 3 Norte 10 Nordeste 0 -- -- 73
2020-07-04 04:00:00 20.5 2 Oeste 9 Norte 0 -- -- 71
2020-07-04 03:00:00 20.5 3 Sudoeste 8 Sudeste 0 -- -- 74
2020-07-04 02:00:00 20.1 3 Sudoeste 9 Nordeste 0 -- -- 77
2020-07-04 01:00:00 21 3 Sur 5 Sur 0 -- -- 74
2020-07-04 00:00:00 21.7 0 Calma 6 Nordeste 0 -- -- 68
2020-07-03 23:00:00 22.6 3 Nordeste 9 Sudoeste 0 -- -- 63
2020-07-03 22:00:00 23.5 6 Sur 12 Sur 0 -- -- 60
2020-07-03 21:00:00 25.3 6 Sudoeste 14 Sudoeste 0 -- -- 56
2020-07-03 20:00:00 28 10 Sudoeste 18 Sur 0 -- -- 48
2020-07-03 19:00:00 29.2 13 Sudoeste 27 Sudoeste 0 -- -- 44
2020-07-03 18:00:00 30.6 13 Sudoeste 25 Sudoeste 0 -- -- 39
2020-07-03 17:00:00 31 10 Sudoeste 25 Sudoeste 0 -- -- 38
2020-07-03 16:00:00 30.8 15 Sudoeste 30 Sudoeste 0 -- -- 36
2020-07-03 15:00:00 31.8 16 Sudoeste 28 Sudoeste 0 -- -- 29
2020-07-03 14:00:00 30.9 7 Norte 17 Nordeste 0 -- -- 27
2020-07-03 13:00:00 29.2 8 Noroeste 15 Nordeste 0 -- -- 33
2020-07-03 12:00:00 28 8 Norte 19 Norte 0 -- -- 35
2020-07-03 11:00:00 26.4 6 Nordeste 19 Nordeste 0 -- -- 42
2020-07-03 10:00:00 23.6 6 Nordeste 14 Nordeste 0 -- -- 48
2020-07-03 09:00:00 20.1 6 Nordeste 13 Norte 0 -- -- 56
2020-07-03 08:00:00 18 7 Nordeste 13 Norte 0 -- -- 61
2020-07-03 07:00:00 18.7 8 Nordeste 12 Norte 0 -- -- 58
2020-07-03 06:00:00 19.5 7 Nordeste 16 Nordeste 0 -- -- 57
2020-07-03 05:00:00 20.2 8 Este 18 Nordeste 0 -- -- 55
2020-07-03 04:00:00 19.4 12 Nordeste 22 Norte 0 -- -- 62
2020-07-03 03:00:00 21.3 16 Norte 26 Norte 0 -- -- 56
2020-07-03 02:00:00 22.2 13 Norte 31 Norte 0 -- -- 53
2020-07-03 01:00:00 22.6 14 Norte 32 Norte 0 -- -- 52
2020-07-03 00:00:00 23 8 Noroeste 22 Norte 0 -- -- 51
2020-07-02 23:00:00 24.2 10 Norte 31 Norte 0 -- -- 45
2020-07-02 22:00:00 25.1 10 Norte 36 Norte 0 -- -- 42
2020-07-02 21:00:00 26.4 12 Norte 38 Noroeste 0 -- -- 42
2020-07-02 20:00:00 28.3 13 Noroeste 36 Norte 0 -- -- 35
2020-07-02 19:00:00 29.8 12 Noroeste 33 Norte 0 -- -- 33
2020-07-02 18:00:00 30.6 9 Noroeste 32 Noroeste 0 -- -- 34
2020-07-02 17:00:00 30.9 13 Noroeste 34 Oeste 0 -- -- 34
2020-07-02 16:00:00 30.8 14 Noroeste 35 Noroeste 0 -- -- 32
2020-07-02 15:00:00 30.5 14 Noroeste 39 Norte 0 -- -- 33
2020-07-02 14:00:00 30.6 14 Norte 31 Noroeste 0 -- -- 31
2020-07-02 13:00:00 30.3 13 Norte 31 Noroeste 0 -- -- 33
2020-07-02 12:00:00 29.4 12 Noroeste 26 Norte 0 -- -- 35
2020-07-02 11:00:00 26.6 18 Norte 27 Norte 0 -- -- 43
2020-07-02 10:00:00 23.2 12 Norte 26 Norte 0 -- -- 45
2020-07-02 09:00:00 20.4 17 Norte 31 Norte 0 -- -- 47
2020-07-02 08:00:00 18.7 21 Norte 30 Norte 0 -- -- 49
2020-07-02 07:00:00 18.9 21 Norte 30 Norte 0 -- -- 49
2020-07-02 06:00:00 18.2 13 Nordeste 31 Norte 0 -- -- 53
2020-07-02 05:00:00 20.3 15 Norte 29 Norte 0 -- -- 44
2020-07-02 04:00:00 21.7 17 Norte 26 Norte 0 -- -- 40
2020-07-02 03:00:00 22.7 14 Norte 22 Norte 0 -- -- 37
2020-07-02 02:00:00 22.4 10 Norte 17 Norte 0 -- -- 44
2020-07-02 01:00:00 22.6 13 Norte 18 Norte 0 -- -- 43
2020-07-02 00:00:00 22.6 14 Norte 20 Norte 0 -- -- 44
2020-07-01 23:00:00 23.9 13 Norte 20 Noroeste 0 -- -- 40
2020-07-01 22:00:00 25.6 13 Norte 21 Norte 0 -- -- 37
2020-07-01 21:00:00 27.9 11 Norte 22 Noroeste 0 -- -- 36
2020-07-01 20:00:00 29.7 9 Norte 22 Norte 0 -- -- 39
2020-07-01 19:00:00 31.6 9 Noroeste 22 Norte 0 -- -- 34
2020-07-01 18:00:00 33.5 10 Oeste 21 Sudoeste 0 -- -- 29
2020-07-01 17:00:00 33.3 10 Noroeste 25 Norte 0 -- -- 27
2020-07-01 16:00:00 33.9 13 Sudoeste 23 Sudoeste 0 -- -- 25
2020-07-01 15:00:00 33.3 8 Oeste 20 Sudoeste 0 -- -- 23
2020-07-01 14:00:00 32.1 7 Nordeste 17 Norte 0 -- -- 25
2020-07-01 13:00:00 31.2 6 Nordeste 18 Norte 0 -- -- 25
2020-07-01 12:00:00 29.2 9 Norte 18 Norte 0 -- -- 27
2020-07-01 11:00:00 26.2 8 Nordeste 19 Nordeste 0 -- -- 41
2020-07-01 10:00:00 22.1 9 Nordeste 19 Nordeste 0 -- -- 55
2020-07-01 09:00:00 18.9 12 Nordeste 18 Nordeste 0 -- -- 65
2020-07-01 08:00:00 17.2 12 Nordeste 18 Nordeste 0 -- -- 72
2020-07-01 07:00:00 16.9 12 Nordeste 20 Nordeste 0 -- -- 75
2020-07-01 06:00:00 17 14 Nordeste 22 Norte 0 -- -- 76
2020-07-01 05:00:00 18.7 13 Nordeste 22 Norte 0 -- -- 65
2020-07-01 04:00:00 18.7 12 Nordeste 17 Nordeste 0 -- -- 66
2020-07-01 03:00:00 19.7 8 Nordeste 12 Este 0 -- -- 68
2020-07-01 02:00:00 20.4 6 Nordeste 9 Nordeste 0 -- -- 68
2020-07-01 01:00:00 20.7 6 Nordeste 10 Nordeste 0 -- -- 67
2020-07-01 00:00:00 21 0 Calma 5 Sur 0 -- -- 65
2020-06-30 23:00:00 22 2 Sur 7 Sur 0 -- -- 64
2020-06-30 22:00:00 23.3 0 Calma 12 Norte 0 -- -- 58
2020-06-30 21:00:00 25.1 2 Sudoeste 10 Sudoeste 0 -- -- 57
2020-06-30 20:00:00 26.6 8 Sudoeste 17 Sudoeste 0 -- -- 53
2020-06-30 19:00:00 27.4 10 Sudoeste 19 Sudoeste 0 -- -- 51
2020-06-30 18:00:00 28.2 14 Sur 22 Sudoeste 0 -- -- 48
2020-06-30 17:00:00 29.6 11 Sudoeste 25 Sudoeste 0 -- -- 43
2020-06-30 16:00:00 29.1 17 Sudoeste 24 Sudoeste 0 -- -- 41
2020-06-30 15:00:00 28.9 14 Sudoeste 23 Sudoeste 0 -- -- 41
2020-06-30 14:00:00 28.8 14 Sudoeste 25 Sudoeste 0 -- -- 41
2020-06-30 13:00:00 27.5 8 Sudoeste 21 Sudoeste 0 -- -- 46
2020-06-30 12:00:00 24.9 9 Sudoeste 17 Sudoeste 0 -- -- 54
2020-06-30 11:00:00 24.7 6 Sur 10 Sudoeste 0 -- -- 47
2020-06-30 10:00:00 26.1 0 Calma 6 Este 0 -- -- 40
2020-06-30 09:00:00 22.4 5 Nordeste 13 Nordeste 0 -- -- 41
2020-06-30 08:00:00 20.4 9 Nordeste 14 Nordeste 0 -- -- 46
2020-06-30 07:00:00 19.3 8 Nordeste 14 Norte 0 -- -- 48
2020-06-30 06:00:00 20.1 2 Nordeste 5 Noroeste 0 -- -- 42
2020-06-30 05:00:00 21.1 2 Noroeste 10 Sudoeste 0 -- -- 39
2020-06-30 04:00:00 22.4 2 Noroeste 7 Este 0 -- -- 35
2020-06-30 03:00:00 21.9 2 Oeste 8 Este 0 -- -- 40
2020-06-30 02:00:00 21.7 0 Calma 9 Noroeste 0 -- -- 40
2020-06-30 01:00:00 21.4 3 Noroeste 11 Este 0 -- -- 43
2020-06-30 00:00:00 21.6 3 Sudoeste 8 Sudoeste 0 -- -- 43
2020-06-29 23:00:00 22 3 Este 6 Nordeste 0 -- -- 47
2020-06-29 22:00:00 22.9 4 Norte 13 Norte 0 -- -- 46
2020-06-29 21:00:00 25.5 2 Sudoeste 13 Norte 0 -- -- 42
2020-06-29 20:00:00 28.3 4 Sudoeste 13 Oeste 0 -- -- 37
2020-06-29 19:00:00 29.8 7 Sudoeste 19 Sudoeste 0 -- -- 33
2020-06-29 18:00:00 31.4 10 Sudoeste 20 Sudoeste 0 -- -- 29
2020-06-29 17:00:00 30.6 15 Sudoeste 25 Sudoeste 0 -- -- 31
2020-06-29 16:00:00 31.3 15 Sudoeste 23 Sudoeste 0 -- -- 31
2020-06-29 15:00:00 30.6 9 Sudoeste 20 Oeste 0 -- -- 32
2020-06-29 14:00:00 29.6 13 Sudoeste 19 Sudoeste 0 -- -- 34
2020-06-29 13:00:00 28.2 8 Sudoeste 18 Sudoeste 0 -- -- 39
2020-06-29 12:00:00 26.3 10 Sudoeste 17 Sudoeste 0 -- -- 45
2020-06-29 11:00:00 25.7 5 Sudoeste 8 Sudoeste 0 -- -- 50
2020-06-29 10:00:00 24 3 Sur 8 Norte 0 -- -- 53
2020-06-29 09:00:00 21.1 5 Nordeste 15 Norte 0 -- -- 60
2020-06-29 08:00:00 20.1 7 Norte 12 Norte 0 -- -- 57
2020-06-29 07:00:00 19.9 4 Sur 15 Norte 0 -- -- 55
2020-06-29 06:00:00 19.3 13 Norte 19 Norte 0 -- -- 67
2020-06-29 05:00:00 21.4 8 Nordeste 9 Norte 0 -- -- 55
2020-06-29 04:00:00 21.7 3 Nordeste 4 Sur 0 -- -- 55
2020-06-29 03:00:00 22.5 0 Calma 8 Este 0 -- -- 52
2020-06-29 02:00:00 23 5 Este 10 Este 0 -- -- 50
2020-06-29 01:00:00 22.7 3 Nordeste 9 Este 0 -- -- 59
2020-06-29 00:00:00 22.3 0 Calma 7 Este 0 -- -- 61
2020-06-28 23:00:00 23.3 0 Calma 15 Norte 0 -- -- 57
2020-06-28 22:00:00 24.6 3 Noroeste 13 Norte 0 -- -- 53
2020-06-28 21:00:00 26.6 5 Sudoeste 13 Oeste 0 -- -- 48
2020-06-28 20:00:00 29.2 9 Sudoeste 18 Sudoeste 0 -- -- 41
2020-06-28 19:00:00 29.7 9 Sudoeste 20 Sudoeste 0 -- -- 38
2020-06-28 18:00:00 30.6 13 Sudoeste 26 Sudoeste 0 -- -- 38
2020-06-28 17:00:00 31.9 14 Sudoeste 22 Sudoeste 0 -- -- 36
2020-06-28 16:00:00 31.1 13 Sudoeste 22 Sudoeste 0 -- -- 36
2020-06-28 15:00:00 30.1 13 Sudoeste 26 Sudoeste 0 -- -- 39
2020-06-28 14:00:00 29.5 12 Sudoeste 21 Sudoeste 0 -- -- 43
2020-06-28 13:00:00 28.5 12 Sudoeste 21 Sudoeste 0 -- -- 48
2020-06-28 12:00:00 27.6 8 Sudoeste 15 Sudoeste 0 -- -- 47
2020-06-28 11:00:00 27.2 4 Sudoeste 8 Sudoeste 0 -- -- 49
2020-06-28 10:00:00 25 4 Nordeste 12 Nordeste 0 -- -- 53
2020-06-28 09:00:00 21.3 10 Nordeste 17 Nordeste 0 -- -- 56
2020-06-28 08:00:00 19.1 15 Nordeste 18 Nordeste 0 -- -- 61
2020-06-28 07:00:00 19.1 15 Nordeste 17 Nordeste 0 -- -- 62
2020-06-28 06:00:00 19.3 14 Nordeste 17 Nordeste 0 -- -- 62
2020-06-28 05:00:00 19.2 13 Norte 18 Norte 0 -- -- 64
2020-06-28 04:00:00 19.3 11 Norte 17 Nordeste 0 -- -- 65
2020-06-28 03:00:00 20.5 14 Norte 18 Norte 0 -- -- 62
2020-06-28 02:00:00 21.2 11 Norte 17 Norte 0 -- -- 59
2020-06-28 01:00:00 21.6 8 Norte 16 Norte 0 -- -- 59
2020-06-28 00:00:00 21.7 10 Norte 19 Norte 0 -- -- 61
2020-06-27 23:00:00 22.3 11 Norte 22 Norte 0 -- -- 59
2020-06-27 22:00:00 23.7 7 Norte 23 Norte 0 -- -- 55
2020-06-27 21:00:00 25.7 12 Norte 28 Norte 0 -- -- 49
2020-06-27 20:00:00 27.4 13 Norte 28 Norte 0 -- -- 45
2020-06-27 19:00:00 28.9 10 Norte 28 Noroeste 0 -- -- 41
2020-06-27 18:00:00 29.3 9 Norte 26 Norte 0 -- -- 40
2020-06-27 17:00:00 29.2 10 Noroeste 33 Noroeste 0 -- -- 40
2020-06-27 16:00:00 28.7 12 Norte 32 Norte 0 -- -- 39
2020-06-27 15:00:00 28.3 12 Noroeste 29 Norte 0 -- -- 39
2020-06-27 14:00:00 28.6 10 Noroeste 21 Norte 0 -- -- 40
2020-06-27 13:00:00 28.4 7 Norte 24 Noroeste 0 -- -- 36
2020-06-27 12:00:00 27.1 7 Norte 21 Nordeste 0 -- -- 37
2020-06-27 11:00:00 24.8 6 Nordeste 18 Norte 0 -- -- 44
2020-06-27 10:00:00 21.1 7 Nordeste 18 Nordeste 0 -- -- 51
2020-06-27 09:00:00 17.7 9 Nordeste 18 Nordeste 0 -- -- 57
2020-06-27 08:00:00 14.3 14 Norte 22 Nordeste 0 -- -- 66
2020-06-27 07:00:00 14.7 12 Norte 23 Nordeste 0 -- -- 65
2020-06-27 06:00:00 14.8 11 Norte 26 Norte 0 -- -- 66
2020-06-27 05:00:00 15.9 15 Norte 26 Norte 0 -- -- 59
2020-06-27 04:00:00 15.9 15 Norte 25 Norte 0 -- -- 62
2020-06-27 03:00:00 16.1 12 Norte 20 Norte 0 -- -- 67
2020-06-27 02:00:00 16.9 12 Norte 19 Norte 0 -- -- 64
2020-06-27 01:00:00 16.9 12 Norte 19 Norte 0 -- -- 64
2020-06-27 00:00:00 17.8 12 Norte 20 Norte 0 -- -- 61
2020-06-26 23:00:00 19.1 13 Norte 21 Norte 0 -- -- 59
2020-06-26 22:00:00 21 15 Norte 24 Norte 0 -- -- 52
2020-06-26 21:00:00 22.5 12 Norte 27 Norte 0 -- -- 53
2020-06-26 20:00:00 24.6 9 Norte 25 Norte 0 -- -- 52
2020-06-26 19:00:00 26.2 10 Oeste 30 Noroeste 0 -- -- 52
2020-06-26 18:00:00 27 11 Oeste 26 Oeste 0 -- -- 51
2020-06-26 17:00:00 27.5 12 Oeste 27 Oeste 0 -- -- 50
2020-06-26 16:00:00 26.8 10 Oeste 27 Oeste 0 -- -- 51
2020-06-26 15:00:00 26.6 11 Sudoeste 34 Sudoeste 0 -- -- 54
2020-06-26 14:00:00 24.9 9 Noroeste 22 Oeste 0 -- -- 60
2020-06-26 13:00:00 23.3 9 Norte 34 Norte 0 -- -- 65
2020-06-26 12:00:00 22.5 7 Noroeste 26 Norte 0 -- -- 65
2020-06-26 11:00:00 21.4 7 Nordeste 16 Nordeste 0 -- -- 70
2020-06-26 10:00:00 19.3 6 Nordeste 19 Norte 0 -- -- 77
2020-06-26 09:00:00 16.7 8 Norte 17 Norte 0 -- -- 90
2020-06-26 08:00:00 14.5 9 Norte 16 Norte 0 -- -- 93
2020-06-26 07:00:00 15.1 6 Norte 12 Nordeste 0 -- -- 91
2020-06-26 06:00:00 16.1 4 Norte 7 Norte 0 -- -- 88
2020-06-26 05:00:00 16.1 3 Nordeste 5 Nordeste 0 -- -- 87
2020-06-26 04:00:00 17.1 4 Sur 6 Sur 0 -- -- 84
2020-06-26 03:00:00 17.6 0 Calma 6 Nordeste 0 -- -- 83
2020-06-26 02:00:00 18.6 4 Nordeste 8 Norte 0 -- -- 77
2020-06-26 01:00:00 19 0 Calma 5 Sur 0 -- -- 76
2020-06-26 00:00:00 19.8 0 Calma 9 Norte 0 -- -- 72
2020-06-25 23:00:00 20.7 3 Nordeste 8 Sur 0 -- -- 61
2020-06-25 22:00:00 22 5 Sudoeste 10 Sur 0 -- -- 52
2020-06-25 21:00:00 24.1 3 Sur 13 Oeste 0 -- -- 47
2020-06-25 20:00:00 25.9 8 Sudoeste 19 Oeste 0 -- -- 44
2020-06-25 19:00:00 26.4 12 Sudoeste 27 Sudoeste 0 -- -- 43
2020-06-25 18:00:00 26.8 17 Sudoeste 29 Sudoeste 0 -- -- 42
2020-06-25 17:00:00 27 15 Sudoeste 32 Sudoeste 0 -- -- 43
2020-06-25 16:00:00 26.7 19 Sudoeste 31 Sudoeste 0 -- -- 43
2020-06-25 15:00:00 26.5 18 Sudoeste 32 Sudoeste 0 -- -- 43
2020-06-25 14:00:00 25.9 15 Sudoeste 27 Sudoeste 0 -- -- 45
2020-06-25 13:00:00 24.9 14 Sudoeste 27 Sur 0 -- -- 49
2020-06-25 12:00:00 24.1 12 Sudoeste 20 Sudoeste 0 -- -- 50
2020-06-25 11:00:00 22.8 12 Sudoeste 19 Sudoeste 0 -- -- 55
2020-06-25 10:00:00 23.3 5 Sudoeste 10 Sudoeste 0 -- -- 49
2020-06-25 09:00:00 21.3 2 Sudeste 10 Sur 0 -- -- 49
2020-06-25 08:00:00 19 6 Nordeste 10 Este 0 -- -- 54
2020-06-25 07:00:00 19 3 Este 9 Nordeste 0 -- -- 52
2020-06-25 06:00:00 19.4 0 Calma 6 Este 0 -- -- 48
2020-06-25 05:00:00 19 0 Calma 6 Oeste 0 -- -- 51
2020-06-25 04:00:00 18.5 0 Calma 9 Nordeste 0 -- -- 56
2020-06-25 03:00:00 18.4 0 Calma 14 Sudoeste 0 -- -- 56
2020-06-25 02:00:00 19.5 4 Sur 11 Sudoeste 0 -- -- 50
2020-06-25 01:00:00 20.8 3 Noroeste 10 Norte 0 -- -- 42
2020-06-25 00:00:00 20.5 4 Norte 13 Norte 0 -- -- 49
2020-06-24 23:00:00 19.6 0 Calma 6 Sur 0 -- -- 60
2020-06-24 22:00:00 20.1 3 Sur 5 Sudoeste 0 -- -- 63
2020-06-24 21:00:00 21.8 2 Sudoeste 13 Sudoeste 0 -- -- 60
2020-06-24 20:00:00 23.3 9 Sudoeste 16 Sudoeste 0 -- -- 63
2020-06-24 19:00:00 24.4 11 Sudoeste 19 Sudoeste 0 -- -- 60
2020-06-24 18:00:00 26.8 9 Sudoeste 28 Sudoeste 0 -- -- 52
2020-06-24 17:00:00 27.5 13 Sudoeste 24 Sudoeste 0 -- -- 50
2020-06-24 16:00:00 29.2 8 Sudoeste 22 Sudoeste 0 -- -- 37
2020-06-24 15:00:00 27.6 11 Sudoeste 26 Oeste 0 -- -- 48
2020-06-24 14:00:00 27.6 11 Sudoeste 21 Sudoeste 0 -- -- 46
2020-06-24 13:00:00 26.4 9 Sudoeste 21 Sudoeste 0 -- -- 45
2020-06-24 12:00:00 25.5 8 Sudoeste 18 Sudoeste 0 -- -- 49
2020-06-24 11:00:00 24.3 4 Sudoeste 12 Sudoeste 0 -- -- 50
2020-06-24 10:00:00 22.7 4 Sudoeste 10 Sudoeste 0 -- -- 54
2020-06-24 09:00:00 21 4 Sur 10 Sudeste 0 -- -- 57
2020-06-24 08:00:00 20.3 0 Calma 10 Este 0 -- -- 52
2020-06-24 07:00:00 20.5 6 Este 14 Este 0 -- -- 50
2020-06-24 06:00:00 19.6 4 Nordeste 9 Nordeste 0 -- -- 55
2020-06-24 05:00:00 18.4 4 Nordeste 8 Nordeste 0 -- -- 67
2020-06-24 04:00:00 17.9 3 Sur 18 Sudoeste 0 -- -- 73
2020-06-24 03:00:00 18.8 9 Sudoeste 18 Sudoeste 0 -- -- 68
2020-06-24 02:00:00 20.2 0 Calma 6 Sur 0 -- -- 57
2020-06-24 01:00:00 20 5 Nordeste 17 Sur 0 -- -- 59
2020-06-24 00:00:00 20.8 5 Sudoeste 15 Sudoeste 0 -- -- 56
2020-06-23 23:00:00 21.6 4 Sudoeste 12 Oeste 0 -- -- 55
2020-06-23 22:00:00 22.2 5 Sur 12 Sudoeste 0 -- -- 56
2020-06-23 21:00:00 22.1 8 Sudoeste 15 Sudoeste 0 -- -- 58
2020-06-23 20:00:00 24.1 8 Sudoeste 24 Sudoeste 0 -- -- 51
2020-06-23 19:00:00 26.3 12 Sudoeste 22 Sudoeste 0 -- -- 46
2020-06-23 18:00:00 29.8 10 Sudoeste 26 Sudoeste 0 -- -- 36
2020-06-23 17:00:00 29.5 10 Sudoeste 26 Sudoeste 0 -- -- 39
2020-06-23 16:00:00 29.8 10 Sudoeste 27 Sudoeste 0 -- -- 38
2020-06-23 15:00:00 27.1 15 Sudoeste 28 Sudoeste 0 -- -- 48
2020-06-23 14:00:00 25.2 16 Sudoeste 31 Sudoeste 0 -- -- 52
2020-06-23 13:00:00 23.7 21 Sudoeste 31 Sudoeste 0 -- -- 58
2020-06-23 12:00:00 24.3 11 Sudoeste 26 Sudoeste 0 -- -- 56
2020-06-23 11:00:00 23.6 10 Sudoeste 19 Sudoeste 0 -- -- 56
2020-06-23 10:00:00 22 8 Sur 18 Sudoeste 0 -- -- 56
2020-06-23 09:00:00 21.8 6 Sur 14 Sudoeste 0 -- -- 52
2020-06-23 08:00:00 22.5 5 Sur 16 Sur 0 -- -- 42
2020-06-23 07:00:00 22.3 3 Sudeste 22 Sudeste 0 -- -- 41
2020-06-23 06:00:00 22.1 4 Sudoeste 14 Sudoeste 0 -- -- 42
2020-06-23 05:00:00 22 4 Sudoeste 17 Sudeste 0 -- -- 44
2020-06-23 04:00:00 22.9 5 Este 22 Este 0 -- -- 41
2020-06-23 03:00:00 22.7 5 Sudoeste 17 Sudeste 0 -- -- 41
2020-06-23 02:00:00 22.4 3 Norte 13 Sudeste 0 -- -- 41
2020-06-23 01:00:00 21.9 3 Oeste 8 Sur 0 -- -- 43
2020-06-23 00:00:00 21.5 2 Oeste 10 Sudoeste 0 -- -- 45
2020-06-22 23:00:00 21.7 4 Oeste 9 Oeste 0 -- -- 43
2020-06-22 22:00:00 22.1 4 Sudoeste 8 Sur 0 -- -- 45
2020-06-22 21:00:00 24.2 3 Sudoeste 8 Sudoeste 0 -- -- 46
2020-06-22 20:00:00 26.7 5 Sudoeste 13 Sudoeste 0 -- -- 41
2020-06-22 19:00:00 27.9 8 Sudoeste 22 Sudoeste 0 -- -- 37
2020-06-22 18:00:00 29.2 15 Sudoeste 23 Sudoeste 0 -- -- 31
2020-06-22 17:00:00 32.2 11 Sudoeste 27 Sur 0 -- -- 24
2020-06-22 16:00:00 31.8 10 Sur 25 Sudoeste 0 -- -- 23
2020-06-22 15:00:00 30.8 10 Sudoeste 27 Sudeste 0 -- -- 27
2020-06-22 14:00:00 30.3 8 Oeste 19 Sur 0 -- -- 28
2020-06-22 13:00:00 29.2 7 Sudoeste 18 Sudeste 0 -- -- 30
2020-06-22 12:00:00 26.8 6 Sudoeste 12 Sur 0 -- -- 43
2020-06-22 11:00:00 24.8 6 Sudoeste 13 Sudoeste 0 -- -- 52
2020-06-22 10:00:00 25.7 4 Sur 8 Sudoeste 0 -- -- 44
2020-06-22 09:00:00 24.8 2 Sudoeste 14 Nordeste 0 -- -- 40
2020-06-22 08:00:00 22.7 3 Norte 12 Este 0 -- -- 41
2020-06-22 07:00:00 21.7 3 Nordeste 11 Nordeste 0 -- -- 44
2020-06-22 06:00:00 20.4 8 Nordeste 13 Nordeste 0 -- -- 54
2020-06-22 05:00:00 20.6 9 Nordeste 14 Nordeste 0 -- -- 54
2020-06-22 04:00:00 21.4 11 Nordeste 13 Nordeste 0 -- -- 52
2020-06-22 03:00:00 21.8 8 Nordeste 13 Nordeste 0 -- -- 51
2020-06-22 02:00:00 22 2 Sur 5 Este 0 -- -- 49
2020-06-22 01:00:00 22.6 3 Oeste 17 Norte 0 -- -- 49
2020-06-22 00:00:00 23.2 12 Nordeste 14 Nordeste 0 -- -- 48
2020-06-21 23:00:00 23.1 0 Calma 5 Este 0 -- -- 48
2020-06-21 22:00:00 24.4 0 Calma 13 Norte 0 -- -- 44
2020-06-21 21:00:00 26.7 8 Norte 14 Norte 0 -- -- 40
2020-06-21 20:00:00 28.6 6 Sudoeste 17 Sudoeste 0 -- -- 37
2020-06-21 19:00:00 30.6 12 Sudoeste 18 Sudoeste 0 -- -- 32
2020-06-21 18:00:00 31.2 12 Sudoeste 24 Sudoeste 0 -- -- 32
2020-06-21 17:00:00 31.5 15 Sudoeste 27 Sudoeste 0 -- -- 31
2020-06-21 16:00:00 31.5 16 Sudoeste 28 Sudoeste 0 -- -- 32
2020-06-21 15:00:00 32.4 9 Sudoeste 22 Sudoeste 0 -- -- 33
2020-06-21 14:00:00 31.2 11 Sudoeste 21 Sudoeste 0 -- -- 34
2020-06-21 13:00:00 29.5 10 Sudoeste 21 Sudoeste 0 -- -- 40
2020-06-21 12:00:00 28.5 5 Sudoeste 12 Sur 0 -- -- 40
2020-06-21 11:00:00 28 2 Sudeste 10 Norte 0 -- -- 44
2020-06-21 10:00:00 24.2 9 Nordeste 13 Nordeste 0 -- -- 48
2020-06-21 09:00:00 20.8 10 Nordeste 17 Nordeste 0 -- -- 52
2020-06-21 08:00:00 18.5 14 Nordeste 17 Nordeste 0 -- -- 60
2020-06-21 07:00:00 18.9 11 Nordeste 16 Norte 0 -- -- 56
2020-06-21 06:00:00 17.8 13 Norte 17 Norte 0 -- -- 65
2020-06-21 05:00:00 18.1 13 Nordeste 18 Nordeste 0 -- -- 65
2020-06-21 04:00:00 18 13 Norte 17 Norte 0 -- -- 66
2020-06-21 03:00:00 18.9 13 Nordeste 16 Norte 0 -- -- 63
2020-06-21 02:00:00 19.8 11 Nordeste 14 Norte 0 -- -- 60
2020-06-21 01:00:00 20.7 9 Norte 14 Norte 0 -- -- 56
2020-06-21 00:00:00 20.5 10 Norte 15 Norte 0 -- -- 57
2020-06-20 23:00:00 22.4 6 Nordeste 9 Norte 0 -- -- 52
2020-06-20 22:00:00 22.2 8 Norte 10 Nordeste 0 -- -- 54
2020-06-20 21:00:00 23.7 0 Calma 12 Sudoeste 0 -- -- 51
2020-06-20 20:00:00 25.3 8 Sudoeste 15 Sudoeste 0 -- -- 49
2020-06-20 19:00:00 26.8 9 Sudoeste 19 Oeste 0 -- -- 44
2020-06-20 18:00:00 27.7 12 Sudoeste 27 Sudoeste 0 -- -- 44
2020-06-20 17:00:00 28.3 14 Sudoeste 25 Sudoeste 0 -- -- 42
2020-06-20 16:00:00 27.8 13 Sudoeste 25 Sudoeste 0 -- -- 43
2020-06-20 15:00:00 27.4 12 Sudoeste 22 Sudoeste 0 -- -- 44
2020-06-20 14:00:00 27.5 7 Sudoeste 17 Sudoeste 0 -- -- 42
2020-06-20 13:00:00 25.7 8 Sudoeste 17 Sudoeste 0 -- -- 48
2020-06-20 12:00:00 23.7 8 Sudoeste 16 Sur 0 -- -- 58
2020-06-20 11:00:00 22.7 5 Sudoeste 8 Sudoeste 0 -- -- 63
2020-06-20 10:00:00 21.3 2 Sur 4 Sur 0 -- -- 64
2020-06-20 09:00:00 18.8 0 Calma 9 Nordeste 0 -- -- 72
2020-06-20 08:00:00 16.7 5 Nordeste 14 Nordeste 0 -- -- 74
2020-06-20 07:00:00 16.5 5 Nordeste 13 Nordeste 0 -- -- 76
2020-06-20 06:00:00 17 2 Nordeste 14 Nordeste 0 -- -- 75
2020-06-20 05:00:00 16.7 12 Nordeste 14 Nordeste 0 -- -- 73
2020-06-20 04:00:00 19.4 5 Nordeste 8 Nordeste 0 -- -- 64
2020-06-20 03:00:00 20.2 5 Este 11 Este 0 -- -- 66
2020-06-20 02:00:00 19.2 3 Nordeste 12 Nordeste 0 -- -- 68
2020-06-20 01:00:00 19 9 Nordeste 18 Norte 0 -- -- 70
2020-06-20 00:00:00 19.2 9 Norte 17 Norte 0 -- -- 70
2020-06-19 23:00:00 19.9 7 Norte 12 Noroeste 0 -- -- 67
2020-06-19 22:00:00 21 6 Norte 17 Norte 0 -- -- 64
2020-06-19 21:00:00 22.5 10 Norte 17 Norte 0 -- -- 60
2020-06-19 20:00:00 24.6 6 Norte 15 Norte 0 -- -- 57
2020-06-19 19:00:00 25.9 4 Noroeste 20 Sudoeste 0 -- -- 53
2020-06-19 18:00:00 25.4 12 Sudoeste 27 Sudoeste 0 -- -- 55
2020-06-19 17:00:00 26.4 11 Sudoeste 25 Sudoeste 0 -- -- 53
2020-06-19 16:00:00 26.6 14 Sudoeste 27 Sur 0 -- -- 52
2020-06-19 15:00:00 25.9 11 Sudoeste 25 Sudoeste 0 -- -- 54
2020-06-19 14:00:00 24.8 12 Sudoeste 23 Sur 0 -- -- 57
2020-06-19 13:00:00 23.6 9 Sudoeste 19 Sur 0 -- -- 61
2020-06-19 12:00:00 22.6 6 Sudoeste 14 Sudoeste 0 -- -- 63
2020-06-19 11:00:00 21 4 Este 10 Nordeste 0 -- -- 60
2020-06-19 10:00:00 18.6 2 Sudoeste 13 Norte 0 -- -- 65
2020-06-19 09:00:00 15.9 4 Nordeste 8 Nordeste 0 -- -- 65
2020-06-19 08:00:00 14 4 Norte 9 Norte 0 -- -- 69
2020-06-19 07:00:00 14.1 3 Sudeste 8 Sur 0 -- -- 77
2020-06-19 06:00:00 14.1 0 Calma 3 Sudeste 0 -- -- 64
2020-06-19 05:00:00 15.8 3 Sur 21 Norte 0 -- -- 58
2020-06-19 04:00:00 16.3 12 Norte 30 Norte 0 -- -- 55
2020-06-19 03:00:00 16.1 17 Norte 28 Noroeste 0 -- -- 50
2020-06-19 02:00:00 16 15 Norte 24 Norte 0 -- -- 58
2020-06-19 01:00:00 17.2 10 Nordeste 20 Norte 0 -- -- 49
2020-06-19 00:00:00 17.4 9 Nordeste 21 Norte 0 -- -- 53
2020-06-18 23:00:00 18.6 10 Norte 19 Norte 0 -- -- 48
2020-06-18 22:00:00 19.2 12 Norte 23 Nordeste 0 -- -- 48
2020-06-18 21:00:00 21.1 10 Norte 23 Nordeste 0 -- -- 41
2020-06-18 20:00:00 23.3 8 Noroeste 23 Oeste 0 -- -- 40
2020-06-18 19:00:00 24.4 9 Noroeste 31 Sudoeste 0 -- -- 41
2020-06-18 18:00:00 25.4 17 Sudoeste 34 Sudoeste 0 -- -- 40
2020-06-18 17:00:00 25.9 16 Sudoeste 30 Sudoeste 0 -- -- 44
2020-06-18 16:00:00 24.7 12 Sudoeste 32 Sudoeste 0 -- -- 53
2020-06-18 15:00:00 25.1 10 Sudoeste 30 Sudoeste 0 -- -- 52
2020-06-18 14:00:00 24.8 12 Sudoeste 30 Sudoeste 0 -- -- 54
2020-06-18 13:00:00 23.9 13 Sudoeste 25 Sur 0 -- -- 54
2020-06-18 12:00:00 22.9 9 Sudoeste 20 Sudoeste 0 -- -- 54
2020-06-18 11:00:00 22.9 7 Sudoeste 14 Sudoeste 0 -- -- 51
2020-06-18 10:00:00 21 7 Nordeste 13 Nordeste 0 -- -- 55
2020-06-18 09:00:00 17.2 9 Norte 18 Norte 0 -- -- 62
2020-06-18 08:00:00 14.6 11 Norte 19 Norte 0 -- -- 71
2020-06-18 07:00:00 14.4 12 Norte 19 Norte 0 -- -- 72
2020-06-18 06:00:00 15.4 12 Norte 19 Norte 0 -- -- 68
2020-06-18 05:00:00 15.6 12 Norte 18 Norte 0 -- -- 68
2020-06-18 04:00:00 15.4 12 Norte 19 Norte 0 -- -- 71
2020-06-18 03:00:00 15.4 12 Norte 22 Norte 0 -- -- 74
2020-06-18 02:00:00 15.8 11 Norte 22 Norte 0 -- -- 73
2020-06-18 01:00:00 18 15 Norte 26 Norte 0 -- -- 63
2020-06-18 00:00:00 17.4 12 Norte 19 Norte 0 -- -- 68
2020-06-17 23:00:00 18.6 8 Norte 20 Noroeste 0 -- -- 64
2020-06-17 22:00:00 20.3 12 Norte 23 Noroeste 0 -- -- 57
2020-06-17 21:00:00 21.8 11 Norte 30 Norte 0 -- -- 51
2020-06-17 20:00:00 23.6 8 Norte 28 Noroeste 0 -- -- 47
2020-06-17 19:00:00 24.9 9 Noroeste 27 Norte 0 -- -- 44
2020-06-17 18:00:00 25.5 9 Norte 25 Noroeste 0 -- -- 42
2020-06-17 17:00:00 25.6 12 Noroeste 26 Norte 0 -- -- 44
2020-06-17 16:00:00 25.5 11 Noroeste 31 Sudoeste 0 -- -- 46
2020-06-17 15:00:00 24.9 11 Norte 26 Norte 0 -- -- 47
2020-06-17 14:00:00 24 9 Noroeste 29 Noroeste 0 -- -- 47
2020-06-17 13:00:00 23.1 10 Norte 28 Norte 0 -- -- 54
2020-06-17 12:00:00 22.2 12 Norte 37 Norte 0 -- -- 57
2020-06-17 11:00:00 21.8 9 Noroeste 25 Norte 0 -- -- 58
2020-06-17 10:00:00 20.5 2 Norte 10 Nordeste 0 -- -- 66
2020-06-17 09:00:00 17.2 7 Nordeste 11 Norte 0 -- -- 78
2020-06-17 08:00:00 14.8 8 Norte 11 Nordeste 0 -- -- 87
2020-06-17 07:00:00 15.3 5 Nordeste 12 Nordeste 0 -- -- 85
2020-06-17 06:00:00 15.2 6 Norte 16 Nordeste 0 -- -- 86
2020-06-17 05:00:00 15.7 9 Nordeste 18 Nordeste 0 -- -- 83
2020-06-17 04:00:00 16.5 7 Nordeste 24 Norte 0 -- -- 79
2020-06-17 03:00:00 17 8 Norte 21 Noroeste 0 -- -- 78
2020-06-17 02:00:00 17.1 9 Norte 22 Norte 0 -- -- 77
2020-06-17 01:00:00 16.6 4 Nordeste 17 Norte 0 -- -- 81
2020-06-17 00:00:00 16.7 6 Nordeste 23 Norte 0 -- -- 82
2020-06-16 23:00:00 17.2 9 Norte 32 Nordeste 0 -- -- 80
2020-06-16 22:00:00 17.9 8 Norte 30 Norte 0 -- -- 79
2020-06-16 21:00:00 19 8 Nordeste 31 Nordeste 0 -- -- 74
2020-06-16 20:00:00 20.3 10 Noroeste 35 Noroeste 0 -- -- 66
2020-06-16 19:00:00 21.8 14 Noroeste 35 Noroeste 0 -- -- 57
2020-06-16 18:00:00 22.8 10 Noroeste 41 Noroeste 0 -- -- 54
2020-06-16 17:00:00 23.5 12 Noroeste 36 Norte 0 -- -- 49
2020-06-16 16:00:00 24.3 14 Oeste 31 Sudoeste 0 -- -- 46
2020-06-16 15:00:00 23.9 8 Oeste 33 Oeste 0 -- -- 41
2020-06-16 14:00:00 22.2 9 Noroeste 28 Oeste 0 -- -- 52
2020-06-16 13:00:00 21.8 6 Sudoeste 27 Noroeste 0 -- -- 54
2020-06-16 12:00:00 21.3 12 Oeste 32 Norte 0 -- -- 51
2020-06-16 11:00:00 20.9 11 Norte 34 Norte 0 -- -- 48
2020-06-16 10:00:00 20 10 Nordeste 35 Norte 0 -- -- 53
2020-06-16 09:00:00 17.1 8 Nordeste 17 Nordeste 0 -- -- 64
2020-06-16 08:00:00 14.9 5 Nordeste 19 Norte 0 -- -- 69
2020-06-16 07:00:00 14.2 10 Norte 22 Nordeste 0 -- -- 70
2020-06-16 06:00:00 14.5 10 Norte 26 Norte 0 -- -- 68
2020-06-16 05:00:00 15.1 12 Nordeste 36 Norte 0 -- -- 65
2020-06-16 04:00:00 17.6 18 Norte 35 Norte 0 -- -- 54
2020-06-16 03:00:00 16.5 22 Norte 41 Norte 0 -- -- 57
2020-06-16 02:00:00 15.1 18 Norte 35 Norte 0 -- -- 65
2020-06-16 01:00:00 14.6 11 Norte 28 Norte 0 -- -- 72
2020-06-16 00:00:00 15.5 15 Norte 31 Norte 0 -- -- 68
2020-06-15 23:00:00 16.9 18 Norte 28 Norte 0 -- -- 61
2020-06-15 22:00:00 18.8 17 Norte 28 Norte 0 -- -- 53
2020-06-15 21:00:00 21.1 14 Norte 27 Norte 0 -- -- 52
2020-06-15 20:00:00 23.2 10 Norte 27 Norte 0 -- -- 49
2020-06-15 19:00:00 24.5 10 Norte 23 Norte 0 -- -- 46
2020-06-15 18:00:00 25.4 8 Norte 22 Norte 0 -- -- 42
2020-06-15 17:00:00 25.1 10 Norte 23 Noroeste 0 -- -- 42
2020-06-15 16:00:00 24.6 10 Noroeste 29 Sudoeste 0 -- -- 42
2020-06-15 15:00:00 24.4 8 Oeste 30 Norte 0 -- -- 48
2020-06-15 14:00:00 23.4 10 Sudoeste 28 Norte 0 -- -- 49
2020-06-15 13:00:00 22.5 12 Oeste 27 Oeste 0 -- -- 50
2020-06-15 12:00:00 21.9 8 Noroeste 17 Noroeste 0 -- -- 51
2020-06-15 11:00:00 21 6 Nordeste 13 Nordeste 0 -- -- 52
2020-06-15 10:00:00 17.8 6 Nordeste 14 Nordeste 0 -- -- 62
2020-06-15 09:00:00 14.1 11 Nordeste 17 Norte 0 -- -- 71
2020-06-15 08:00:00 11.4 12 Nordeste 19 Norte 0 -- -- 82
2020-06-15 07:00:00 11.1 14 Nordeste 21 Norte 0 -- -- 84
2020-06-15 06:00:00 11.7 14 Norte 23 Norte 0 -- -- 82
2020-06-15 05:00:00 12.4 13 Norte 31 Norte 0 -- -- 79
2020-06-15 04:00:00 14.3 15 Norte 32 Norte 0 -- -- 67
2020-06-15 03:00:00 14.3 14 Norte 29 Norte 0 -- -- 66
2020-06-15 02:00:00 13.5 12 Nordeste 27 Norte 0 -- -- 78
2020-06-15 01:00:00 13.5 12 Norte 25 Norte 0 -- -- 77
2020-06-15 00:00:00 13.9 13 Norte 26 Norte 0 -- -- 74